Time;durP1;ratioP1;P1;durP2;ratioP2;P2;SDS_P1;SDS_P2;PMS_P1;PMS_P2;Temp;Humidity;BMP_temperature;BMP_pressure;BME280_temperature;BME280_humidity;BME280_pressure;Samples;Min_cycle;Max_cycle;Signal;HPM_P1;HPM_P2
2023/09/30 00:00:40;;;;;;;11.07;3.10;;;17.00;99.90;;;;;;5009569;28;21062;-69
2023/09/30 00:03:08;;;;;;;9.10;2.40;;;16.90;99.90;;;;;;5011922;28;20453;-69
2023/09/30 00:05:36;;;;;;;12.13;3.03;;;16.80;99.90;;;;;;5003974;28;20893;-68
2023/09/30 00:08:06;;;;;;;9.77;2.77;;;16.80;99.90;;;;;;5011696;28;20500;-70
2023/09/30 00:10:35;;;;;;;8.43;2.50;;;16.80;99.90;;;;;;5011880;28;20471;-70
2023/09/30 00:13:03;;;;;;;11.83;3.70;;;16.70;99.90;;;;;;5011728;28;20453;-70
2023/09/30 00:15:31;;;;;;;11.57;2.87;;;16.70;99.90;;;;;;5011689;28;20446;-71
2023/09/30 00:17:59;;;;;;;9.33;2.30;;;16.70;99.90;;;;;;5011589;28;20804;-69
2023/09/30 00:20:27;;;;;;;9.10;2.27;;;16.70;99.90;;;;;;5011341;28;20470;-69
2023/09/30 00:22:55;;;;;;;9.17;2.37;;;16.70;99.90;;;;;;5011124;28;20464;-70
2023/09/30 00:25:25;;;;;;;9.43;2.40;;;16.80;99.90;;;;;;5011043;28;20456;-70
2023/09/30 00:27:53;;;;;;;11.90;2.43;;;16.90;99.90;;;;;;5010787;28;20848;-70
2023/09/30 00:30:21;;;;;;;9.77;2.07;;;16.90;99.90;;;;;;5010755;28;20480;-70
2023/09/30 00:32:49;;;;;;;8.40;2.80;;;16.90;99.90;;;;;;5011133;28;20481;-69
2023/09/30 00:35:17;;;;;;;9.37;2.70;;;16.90;99.90;;;;;;5010662;28;20461;-70
2023/09/30 00:37:45;;;;;;;11.00;3.43;;;16.80;99.90;;;;;;5010633;28;20446;-69
2023/09/30 00:40:13;;;;;;;7.80;2.13;;;16.80;99.90;;;;;;5010523;28;20512;-70
2023/09/30 00:42:43;;;;;;;8.33;2.20;;;16.70;99.90;;;;;;5010599;28;20866;-69
2023/09/30 00:45:12;;;;;;;8.17;2.23;;;16.60;99.90;;;;;;5010669;28;20458;-70
2023/09/30 00:47:40;;;;;;;8.73;2.60;;;16.40;99.90;;;;;;5010789;28;20510;-70
2023/09/30 00:50:10;;;;;;;8.03;2.07;;;16.30;99.90;;;;;;5010743;28;20466;-70
2023/09/30 00:52:40;;;;;;;7.87;1.90;;;16.30;99.90;;;;;;5003051;28;20492;-70
2023/09/30 00:55:10;;;;;;;9.70;2.50;;;16.20;99.90;;;;;;5010236;28;21131;-70
2023/09/30 00:57:39;;;;;;;9.00;2.20;;;16.10;99.90;;;;;;5010599;28;20525;-70
2023/09/30 01:00:11;;;;;;;9.10;2.10;;;16.00;99.90;;;;;;5010533;28;20480;-70
2023/09/30 01:02:41;;;;;;;8.83;2.20;;;15.90;99.90;;;;;;5010519;28;20955;-70
2023/09/30 01:05:10;;;;;;;9.20;2.27;;;15.80;99.90;;;;;;5010166;28;21023;-70
2023/09/30 01:07:38;;;;;;;8.80;2.43;;;15.80;99.90;;;;;;5010136;28;20873;-69
2023/09/30 01:10:07;;;;;;;10.30;2.70;;;15.70;99.90;;;;;;5010247;28;20523;-69
2023/09/30 01:12:35;;;;;;;9.63;2.53;;;15.50;99.90;;;;;;5008929;28;20524;-70
2023/09/30 01:15:05;;;;;;;9.93;2.30;;;15.50;99.90;;;;;;5009975;28;20488;-69
2023/09/30 01:17:37;;;;;;;10.53;2.43;;;15.40;99.90;;;;;;5009823;28;20446;-70
2023/09/30 01:20:07;;;;;;;11.03;2.33;;;15.30;99.90;;;;;;5009725;28;20557;-69
2023/09/30 01:22:36;;;;;;;10.63;2.33;;;15.30;99.90;;;;;;5009881;28;20876;-70
2023/09/30 01:25:06;;;;;;;9.50;2.93;;;15.40;99.90;;;;;;5009752;28;20461;-71
2023/09/30 01:27:34;;;;;;;8.97;2.37;;;15.30;99.90;;;;;;5015153;28;20586;-70
2023/09/30 01:30:02;;;;;;;8.67;2.70;;;15.20;99.90;;;;;;5009920;28;20449;-68
2023/09/30 01:32:30;;;;;;;7.90;2.63;;;15.10;99.90;;;;;;5009775;28;20445;-68
2023/09/30 01:34:58;;;;;;;9.23;3.30;;;15.00;99.90;;;;;;5010897;28;20458;-69
2023/09/30 01:37:28;;;;;;;9.27;3.13;;;15.00;99.90;;;;;;5009418;28;20456;-70
2023/09/30 01:39:58;;;;;;;8.93;2.83;;;14.90;99.90;;;;;;5009587;28;20514;-69
2023/09/30 01:42:25;;;;;;;9.90;2.93;;;14.90;99.90;;;;;;5009745;28;20452;-70
2023/09/30 01:44:54;;;;;;;9.13;2.50;;;14.80;99.90;;;;;;5009591;28;20577;-70
2023/09/30 01:47:22;;;;;;;9.30;3.77;;;14.80;99.90;;;;;;5017145;28;20549;-69
2023/09/30 01:49:50;;;;;;;9.40;3.37;;;14.80;99.90;;;;;;5012118;28;20828;-68
2023/09/30 01:52:18;;;;;;;10.20;2.90;;;14.70;99.90;;;;;;5009658;28;20448;-69
2023/09/30 01:54:46;;;;;;;8.87;3.13;;;14.60;99.90;;;;;;5009786;28;20456;-70
2023/09/30 01:57:15;;;;;;;9.87;3.33;;;14.60;99.90;;;;;;5009171;28;20493;-69
2023/09/30 01:59:43;;;;;;;9.07;2.90;;;14.60;99.90;;;;;;5009113;28;20448;-71
2023/09/30 02:02:11;;;;;;;10.00;3.30;;;14.70;99.90;;;;;;5009134;28;21266;-69
2023/09/30 02:04:40;;;;;;;10.17;3.30;;;14.60;99.90;;;;;;5009428;28;20496;-70
2023/09/30 02:07:08;;;;;;;8.17;3.33;;;14.50;99.90;;;;;;5009361;28;21205;-70
2023/09/30 02:09:36;;;;;;;9.33;4.30;;;14.50;99.90;;;;;;5008990;28;20489;-70
2023/09/30 02:12:04;;;;;;;8.50;3.60;;;14.40;99.90;;;;;;5008894;28;21333;-69
2023/09/30 02:14:34;;;;;;;14.00;4.53;;;14.20;99.90;;;;;;5009219;28;20460;-69
2023/09/30 02:17:02;;;;;;;8.77;2.90;;;14.10;99.90;;;;;;5009178;28;20523;-70
2023/09/30 02:19:33;;;;;;;11.30;3.50;;;14.10;99.90;;;;;;5008805;28;20984;-70
2023/09/30 02:22:02;;;;;;;9.40;3.40;;;14.20;99.90;;;;;;5009029;28;20507;-70
2023/09/30 02:24:30;;;;;;;9.87;3.40;;;14.20;99.90;;;;;;5008715;28;20464;-70
2023/09/30 02:26:58;;;;;;;10.30;3.83;;;14.20;99.90;;;;;;5008474;28;20527;-70
2023/09/30 02:29:26;;;;;;;10.07;3.83;;;14.30;99.90;;;;;;5008940;28;20481;-70
2023/09/30 02:31:55;;;;;;;10.10;3.80;;;14.40;99.90;;;;;;5009085;28;20489;-69
2023/09/30 02:34:23;;;;;;;11.90;3.90;;;14.40;99.90;;;;;;5009111;28;20572;-69
2023/09/30 02:36:51;;;;;;;10.60;3.80;;;14.40;99.90;;;;;;5008782;28;20450;-69
2023/09/30 02:39:20;;;;;;;9.47;3.60;;;14.50;99.90;;;;;;5008603;28;20453;-69
2023/09/30 02:41:50;;;;;;;10.63;3.90;;;14.50;99.90;;;;;;5009099;28;20577;-69
2023/09/30 02:44:18;;;;;;;9.30;3.73;;;14.40;99.90;;;;;;5009368;28;21041;-69
2023/09/30 02:46:46;;;;;;;10.77;4.03;;;14.30;99.90;;;;;;5009114;28;20530;-70
2023/09/30 02:49:15;;;;;;;8.90;4.10;;;14.20;99.90;;;;;;5005878;28;20517;-70
2023/09/30 02:51:44;;;;;;;9.37;4.07;;;14.20;99.90;;;;;;5008688;28;20516;-69
2023/09/30 02:54:15;;;;;;;11.80;4.20;;;14.20;99.90;;;;;;5015692;28;20463;-70
2023/09/30 02:56:45;;;;;;;8.57;3.40;;;14.10;99.90;;;;;;5001197;28;20448;-70
2023/09/30 02:59:14;;;;;;;8.53;3.30;;;14.10;99.90;;;;;;5008605;28;20451;-70
2023/09/30 03:01:43;;;;;;;9.70;4.30;;;14.20;99.90;;;;;;5008452;28;20834;-69
2023/09/30 03:04:12;;;;;;;10.03;4.57;;;14.10;99.90;;;;;;5008611;28;20464;-70
2023/09/30 03:06:42;;;;;;;11.53;4.50;;;14.20;99.90;;;;;;5000595;28;20453;-70
2023/09/30 03:09:12;;;;;;;10.07;4.20;;;14.20;99.90;;;;;;5008454;28;20485;-70
2023/09/30 03:11:42;;;;;;;12.87;4.60;;;14.10;99.90;;;;;;5000710;28;20470;-70
2023/09/30 03:14:12;;;;;;;9.40;4.00;;;14.10;99.90;;;;;;5008363;28;20551;-70
2023/09/30 03:16:41;;;;;;;9.60;3.80;;;14.20;99.90;;;;;;5008216;28;20445;-70
2023/09/30 03:19:11;;;;;;;11.43;3.53;;;14.20;99.90;;;;;;5008454;28;20448;-69
2023/09/30 03:21:40;;;;;;;11.70;3.70;;;14.30;99.90;;;;;;5008268;28;20471;-70
2023/09/30 03:24:09;;;;;;;10.70;3.90;;;14.50;99.90;;;;;;5008151;28;20479;-70
2023/09/30 03:26:40;;;;;;;10.80;3.77;;;14.50;99.90;;;;;;5008188;28;20451;-70
2023/09/30 03:29:09;;;;;;;11.37;3.87;;;14.60;99.90;;;;;;5008194;28;20485;-70
2023/09/30 03:31:37;;;;;;;11.60;4.00;;;14.60;99.90;;;;;;5008214;28;20458;-69
2023/09/30 03:34:06;;;;;;;12.17;4.47;;;14.80;99.90;;;;;;5008199;28;20539;-70
2023/09/30 03:36:35;;;;;;;10.20;4.10;;;14.80;99.90;;;;;;5011253;28;20452;-70
2023/09/30 03:39:08;;;;;;;9.63;3.90;;;14.90;99.90;;;;;;5011804;28;20940;-70
2023/09/30 03:41:36;;;;;;;11.60;4.10;;;15.00;99.90;;;;;;5017838;28;20468;-70
2023/09/30 03:44:05;;;;;;;8.47;3.27;;;15.10;99.90;;;;;;5011748;28;21062;-70
2023/09/30 03:46:32;;;;;;;12.17;4.73;;;15.00;99.90;;;;;;5011771;28;20443;-69
2023/09/30 03:49:00;;;;;;;10.10;3.23;;;15.00;99.90;;;;;;5011807;28;20490;-70
2023/09/30 03:51:29;;;;;;;10.90;3.50;;;15.00;99.90;;;;;;5011564;28;20521;-70
2023/09/30 03:53:57;;;;;;;9.43;3.23;;;15.00;99.90;;;;;;5011385;28;20458;-70
2023/09/30 03:56:27;;;;;;;11.07;4.80;;;14.90;99.90;;;;;;5011447;28;20445;-70
2023/09/30 03:58:55;;;;;;;10.30;4.50;;;14.90;99.90;;;;;;5011540;28;20487;-69
2023/09/30 04:01:23;;;;;;;9.30;4.20;;;14.80;99.90;;;;;;5011360;28;20466;-70
2023/09/30 04:03:54;;;;;;;13.00;4.57;;;14.90;99.90;;;;;;5011509;28;20551;-71
2023/09/30 04:06:23;;;;;;;12.53;4.07;;;14.90;99.90;;;;;;5011274;28;20445;-70
2023/09/30 04:08:51;;;;;;;10.83;4.10;;;14.90;99.90;;;;;;5011097;28;20449;-69
2023/09/30 04:11:20;;;;;;;11.40;3.83;;;14.90;99.90;;;;;;5011541;28;20496;-70
2023/09/30 04:13:50;;;;;;;10.83;4.50;;;14.80;99.90;;;;;;5011489;28;20495;-71
2023/09/30 04:16:19;;;;;;;12.33;4.70;;;14.80;99.90;;;;;;5011458;28;20838;-70
2023/09/30 04:18:48;;;;;;;9.90;4.40;;;14.80;99.90;;;;;;5011291;28;20983;-70
2023/09/30 04:21:17;;;;;;;9.93;4.67;;;14.80;99.90;;;;;;5010938;28;20484;-70
2023/09/30 04:23:46;;;;;;;10.73;3.80;;;14.80;99.90;;;;;;5010661;28;20992;-70
2023/09/30 04:26:14;;;;;;;10.10;4.97;;;14.80;99.90;;;;;;5011129;28;21285;-67
2023/09/30 04:28:43;;;;;;;11.37;4.17;;;14.70;99.90;;;;;;5002838;28;20526;-68
2023/09/30 04:31:13;;;;;;;10.30;4.37;;;14.70;99.90;;;;;;5010783;28;20949;-67
2023/09/30 04:33:41;;;;;;;12.30;4.60;;;14.70;99.90;;;;;;5010642;28;20547;-68
2023/09/30 04:36:10;;;;;;;11.90;4.67;;;14.70;99.90;;;;;;5010895;28;20452;-68
2023/09/30 04:38:38;;;;;;;11.00;5.07;;;14.80;99.90;;;;;;5010592;28;20450;-67
2023/09/30 04:41:07;;;;;;;10.57;4.77;;;14.90;99.90;;;;;;5010871;28;20470;-67
2023/09/30 04:43:37;;;;;;;12.67;5.00;;;14.90;99.90;;;;;;5010355;28;20508;-67
2023/09/30 04:46:07;;;;;;;12.43;4.80;;;14.90;99.90;;;;;;5010616;28;20474;-67
2023/09/30 04:48:36;;;;;;;14.90;5.50;;;15.00;99.90;;;;;;5010112;28;20458;-68
2023/09/30 04:51:08;;;;;;;11.33;4.70;;;15.00;99.90;;;;;;5010331;28;20620;-67
2023/09/30 04:53:36;;;;;;;11.30;4.70;;;14.90;99.90;;;;;;5010347;28;20463;-67
2023/09/30 04:56:05;;;;;;;11.73;5.43;;;14.80;99.90;;;;;;5010729;28;20441;-67
2023/09/30 04:58:32;;;;;;;10.60;4.80;;;14.80;99.90;;;;;;5014530;28;20539;-67
2023/09/30 05:01:00;;;;;;;10.17;4.60;;;14.80;99.90;;;;;;5010983;28;20480;-67
2023/09/30 05:03:28;;;;;;;11.43;5.17;;;14.80;99.90;;;;;;5010392;28;20456;-67
2023/09/30 05:05:58;;;;;;;14.60;5.73;;;14.80;99.90;;;;;;5010847;28;20448;-66
2023/09/30 05:08:28;;;;;;;11.40;5.03;;;14.70;99.90;;;;;;5010085;28;20455;-67
2023/09/30 05:10:57;;;;;;;11.83;4.97;;;14.70;99.90;;;;;;5010439;28;21145;-67
2023/09/30 05:13:25;;;;;;;11.90;5.07;;;14.70;99.90;;;;;;5010096;28;20479;-67
2023/09/30 05:15:53;;;;;;;11.10;4.33;;;14.80;99.90;;;;;;5010757;28;20895;-68
2023/09/30 05:18:21;;;;;;;13.13;4.50;;;14.80;99.90;;;;;;5009913;28;20503;-67
2023/09/30 05:20:50;;;;;;;10.90;4.77;;;14.80;99.90;;;;;;5010145;28;20523;-67
2023/09/30 05:23:19;;;;;;;12.20;6.00;;;14.60;99.90;;;;;;5009999;28;20523;-68
2023/09/30 05:25:47;;;;;;;10.80;4.67;;;14.50;99.90;;;;;;5002551;28;20444;-68
2023/09/30 05:28:15;;;;;;;12.40;5.60;;;14.30;99.90;;;;;;5009511;28;20455;-67
2023/09/30 05:30:43;;;;;;;10.47;5.40;;;14.40;99.90;;;;;;5009719;28;20528;-67
2023/09/30 05:33:14;;;;;;;12.37;6.03;;;14.40;99.90;;;;;;5009818;28;20464;-67
2023/09/30 05:35:42;;;;;;;13.20;5.57;;;14.40;99.90;;;;;;5009806;28;20466;-70
2023/09/30 05:38:12;;;;;;;9.70;4.60;;;14.30;99.90;;;;;;5009654;28;20529;-69
2023/09/30 05:40:43;;;;;;;12.77;5.57;;;14.20;99.90;;;;;;5009752;28;20534;-70
2023/09/30 05:43:13;;;;;;;11.87;5.83;;;14.20;99.90;;;;;;5009615;28;20452;-70
2023/09/30 05:45:48;;;;;;;14.00;5.33;;;14.40;99.90;;;;;;5009368;28;21023;-69
2023/09/30 05:48:17;;;;;;;13.00;5.10;;;14.50;99.90;;;;;;5009558;28;20450;-70
2023/09/30 05:50:45;;;;;;;11.27;4.70;;;14.40;99.90;;;;;;5009185;28;21030;-70
2023/09/30 05:53:13;;;;;;;14.23;5.50;;;14.40;99.90;;;;;;5009518;28;21121;-70
2023/09/30 05:55:43;;;;;;;12.90;5.47;;;14.40;99.90;;;;;;5009607;28;20534;-69
2023/09/30 05:58:14;;;;;;;11.43;5.47;;;14.50;99.90;;;;;;5008705;28;21147;-69
2023/09/30 06:00:42;;;;;;;12.43;5.20;;;14.60;99.90;;;;;;5009050;28;20482;-70
2023/09/30 06:03:11;;;;;;;12.40;4.93;;;14.80;99.90;;;;;;5009206;28;20997;-69
2023/09/30 06:05:41;;;;;;;12.40;6.87;;;14.80;99.90;;;;;;5009012;28;20459;-69
2023/09/30 06:08:13;;;;;;;11.40;4.60;;;14.90;99.90;;;;;;5008991;28;20479;-70
2023/09/30 06:10:44;;;;;;;10.93;4.07;;;15.10;99.90;;;;;;5008667;28;20590;-69
2023/09/30 06:13:12;;;;;;;12.40;5.13;;;15.20;99.90;;;;;;5010102;28;20534;-70
2023/09/30 06:15:41;;;;;;;12.10;5.60;;;15.20;99.90;;;;;;5009125;28;20444;-71
2023/09/30 06:18:13;;;;;;;10.87;4.20;;;15.20;99.90;;;;;;5009072;28;20454;-70
2023/09/30 06:20:42;;;;;;;11.17;5.03;;;15.50;99.90;;;;;;5008815;28;20477;-71
2023/09/30 06:23:10;;;;;;;15.23;5.50;;;15.60;99.90;;;;;;5009190;28;20464;-70
2023/09/30 06:25:39;;;;;;;13.23;5.40;;;15.70;99.90;;;;;;5009098;28;20678;-71
2023/09/30 06:28:09;;;;;;;11.90;4.93;;;15.70;99.90;;;;;;5009005;28;20552;-70
2023/09/30 06:30:37;;;;;;;11.90;5.07;;;15.70;99.90;;;;;;5008337;28;20486;-70
2023/09/30 06:33:06;;;;;;;12.10;4.50;;;15.80;99.90;;;;;;5008971;28;20993;-69
2023/09/30 06:35:37;;;;;;;10.87;4.83;;;16.00;99.90;;;;;;5011039;28;20454;-70
2023/09/30 06:38:06;;;;;;;11.50;4.70;;;15.90;99.90;;;;;;5008759;28;20536;-71
2023/09/30 06:40:35;;;;;;;10.53;4.30;;;15.90;99.90;;;;;;5008477;28;20485;-71
2023/09/30 06:43:08;;;;;;;11.57;4.53;;;15.90;99.90;;;;;;5009013;28;20508;-70
2023/09/30 06:45:41;;;;;;;9.20;4.60;;;16.00;99.90;;;;;;5008860;28;20515;-69
2023/09/30 06:48:12;;;;;;;12.20;4.50;;;16.20;99.90;;;;;;5008683;28;20837;-69
2023/09/30 06:50:44;;;;;;;10.30;4.60;;;16.40;99.90;;;;;;5008192;28;20572;-70
2023/09/30 06:53:12;;;;;;;11.73;5.20;;;16.50;99.90;;;;;;5009089;28;21256;-73
2023/09/30 06:55:40;;;;;;;12.37;5.40;;;16.60;99.90;;;;;;5008834;28;20453;-70
2023/09/30 06:58:10;;;;;;;10.50;4.50;;;16.80;99.90;;;;;;5008522;28;20456;-69
2023/09/30 07:00:38;;;;;;;11.00;5.10;;;17.00;99.90;;;;;;5008064;28;21065;-69
2023/09/30 07:03:07;;;;;;;10.70;4.80;;;17.10;99.90;;;;;;5008384;28;20450;-70
2023/09/30 07:05:35;;;;;;;10.60;4.10;;;16.90;99.90;;;;;;5008724;28;20479;-69
2023/09/30 07:08:04;;;;;;;10.67;4.50;;;16.90;99.90;;;;;;5008373;28;20844;-69
2023/09/30 07:10:31;;;;;;;10.70;4.27;;;16.80;99.90;;;;;;5010289;28;20477;-68
2023/09/30 07:12:59;;;;;;;11.03;4.63;;;16.80;99.90;;;;;;5006744;28;20465;-69
2023/09/30 07:15:29;;;;;;;9.83;4.20;;;16.80;99.90;;;;;;5015145;28;20476;-70
2023/09/30 07:17:57;;;;;;;10.47;3.93;;;16.80;99.90;;;;;;5012749;28;20496;-70
2023/09/30 07:20:26;;;;;;;11.00;4.40;;;16.70;99.90;;;;;;5011844;28;20556;-69
2023/09/30 07:22:54;;;;;;;11.03;4.30;;;16.70;99.90;;;;;;5012574;28;20450;-69
2023/09/30 07:25:42;;;;;;;10.00;4.33;;;16.60;99.90;;;;;;5012369;28;20446;-69
2023/09/30 07:28:11;;;;;;;10.10;4.53;;;16.70;99.90;;;;;;5012198;28;20477;-70
2023/09/30 07:30:41;;;;;;;10.97;5.60;;;16.80;99.90;;;;;;5011759;28;20479;-70
2023/09/30 07:33:09;;;;;;;12.10;4.90;;;16.90;99.90;;;;;;5012555;28;20454;-70
2023/09/30 07:35:39;;;;;;;10.07;4.50;;;16.80;99.90;;;;;;5015417;28;20952;-70
2023/09/30 07:38:07;;;;;;;11.90;4.67;;;16.90;99.90;;;;;;5011832;28;20445;-70
2023/09/30 07:40:35;;;;;;;12.77;5.80;;;16.90;99.90;;;;;;5011587;28;20503;-70
2023/09/30 07:43:04;;;;;;;13.17;5.37;;;16.70;99.90;;;;;;5011718;28;20460;-73
2023/09/30 07:45:32;;;;;;;12.23;5.30;;;16.70;99.90;;;;;;5009211;28;20977;-70
2023/09/30 07:48:03;;;;;;;11.80;6.07;;;16.60;99.90;;;;;;5010509;28;20464;-70
2023/09/30 07:50:31;;;;;;;11.37;4.83;;;16.80;99.90;;;;;;5011289;28;20795;-68
2023/09/30 07:53:00;;;;;;;14.43;6.13;;;16.90;99.90;;;;;;5003107;28;20486;-70
2023/09/30 07:55:28;;;;;;;11.53;6.23;;;16.90;99.90;;;;;;5006576;28;21031;-69
2023/09/30 07:57:59;;;;;;;14.33;6.07;;;17.00;99.90;;;;;;5002901;28;20461;-70
2023/09/30 08:00:27;;;;;;;15.50;6.20;;;17.10;99.90;;;;;;5008231;28;20560;-67
2023/09/30 08:02:55;;;;;;;14.47;6.60;;;17.30;99.90;;;;;;5006985;28;20443;-67
2023/09/30 08:05:24;;;;;;;11.27;5.10;;;17.40;99.90;;;;;;5005573;28;20466;-66
2023/09/30 08:07:53;;;;;;;12.10;5.80;;;17.60;99.90;;;;;;5007297;28;20461;-69
2023/09/30 08:10:21;;;;;;;11.93;5.10;;;17.70;99.90;;;;;;5008401;28;20600;-69
2023/09/30 08:12:49;;;;;;;10.80;4.40;;;17.70;99.90;;;;;;5010281;28;20477;-70
2023/09/30 08:15:18;;;;;;;11.33;4.33;;;17.70;99.90;;;;;;5010400;28;20453;-71
2023/09/30 08:17:46;;;;;;;11.40;4.27;;;17.80;99.90;;;;;;5009505;28;20454;-70
2023/09/30 08:20:14;;;;;;;12.20;5.27;;;18.00;99.90;;;;;;5009610;28;20474;-70
2023/09/30 08:22:44;;;;;;;11.33;3.90;;;18.30;99.90;;;;;;5009842;28;20472;-71
2023/09/30 08:25:12;;;;;;;10.97;4.50;;;18.50;99.90;;;;;;5009246;28;21255;-70
2023/09/30 08:27:41;;;;;;;11.77;3.47;;;18.70;99.90;;;;;;5010171;28;20454;-70
2023/09/30 08:30:10;;;;;;;12.20;4.50;;;18.90;99.90;;;;;;5010655;28;21384;-71
2023/09/30 08:32:38;;;;;;;14.23;4.70;;;19.10;99.90;;;;;;5008932;28;20478;-71
2023/09/30 08:35:07;;;;;;;14.50;4.33;;;19.40;99.90;;;;;;5010631;28;20565;-70
2023/09/30 08:37:35;;;;;;;11.50;4.90;;;19.30;99.90;;;;;;5010072;28;20461;-70
2023/09/30 08:40:06;;;;;;;12.57;4.03;;;19.20;99.90;;;;;;5009825;28;20607;-69
2023/09/30 08:42:34;;;;;;;12.23;4.00;;;19.30;99.90;;;;;;5009276;28;20551;-69
2023/09/30 08:45:05;;;;;;;9.97;4.40;;;19.50;99.90;;;;;;5009646;28;20457;-70
2023/09/30 08:47:35;;;;;;;11.50;3.70;;;19.70;99.90;;;;;;5009408;28;20462;-71
2023/09/30 08:50:06;;;;;;;11.60;4.20;;;19.80;99.90;;;;;;5007236;28;20536;-71
2023/09/30 08:52:35;;;;;;;9.10;3.60;;;20.10;99.90;;;;;;5009575;28;20485;-70
2023/09/30 08:55:10;;;;;;;12.00;3.97;;;20.40;99.90;;;;;;5010130;28;20462;-69
2023/09/30 08:57:40;;;;;;;9.60;3.33;;;20.70;99.90;;;;;;5009625;28;20953;-70
2023/09/30 09:00:12;;;;;;;12.53;4.00;;;20.70;99.90;;;;;;5009278;28;20483;-70
2023/09/30 09:02:41;;;;;;;13.03;4.73;;;20.70;99.90;;;;;;5010047;28;20446;-71
2023/09/30 09:05:11;;;;;;;11.40;3.77;;;20.60;99.90;;;;;;5010313;28;20493;-70
2023/09/30 09:07:39;;;;;;;11.97;4.33;;;20.50;99.90;;;;;;5009314;28;20883;-70
2023/09/30 09:10:10;;;;;;;10.60;4.23;;;20.60;99.90;;;;;;5008981;28;20984;-69
2023/09/30 09:12:39;;;;;;;9.80;4.10;;;20.60;99.90;;;;;;5009239;28;20481;-71
2023/09/30 09:15:20;;;;;;;10.67;4.03;;;20.70;99.90;;;;;;5009682;28;20454;-70
2023/09/30 09:17:50;;;;;;;11.67;4.63;;;20.70;99.90;;;;;;5008878;28;20456;-69
2023/09/30 09:20:20;;;;;;;10.80;3.90;;;21.10;99.90;;;;;;5009069;28;20481;-70
2023/09/30 09:22:50;;;;;;;10.97;4.40;;;21.20;99.90;;;;;;5009089;28;20531;-70
2023/09/30 09:25:22;;;;;;;10.60;4.40;;;21.40;99.90;;;;;;5008018;28;20458;-72
2023/09/30 09:27:51;;;;;;;15.10;4.77;;;21.60;99.90;;;;;;5009240;28;20465;-70
2023/09/30 09:30:21;;;;;;;9.87;3.80;;;21.80;99.90;;;;;;5008624;28;20544;-71
2023/09/30 09:32:59;;;;;;;10.67;4.33;;;21.90;99.90;;;;;;5007863;28;20992;-71
2023/09/30 09:35:30;;;;;;;11.03;3.90;;;22.10;99.90;;;;;;5008823;28;20457;-71
2023/09/30 09:37:59;;;;;;;10.20;3.90;;;22.30;99.90;;;;;;5008564;28;20449;-71
2023/09/30 09:40:31;;;;;;;11.30;4.10;;;22.50;99.90;;;;;;5008637;28;20492;-70
2023/09/30 09:43:00;;;;;;;11.27;3.80;;;22.70;99.90;;;;;;5009372;28;20445;-70
2023/09/30 09:45:32;;;;;;;10.87;3.60;;;22.70;99.90;;;;;;5008218;28;20469;-71
2023/09/30 09:48:01;;;;;;;12.27;4.63;;;22.50;99.90;;;;;;5007984;28;20453;-69
2023/09/30 09:50:31;;;;;;;12.50;4.07;;;22.60;99.90;;;;;;5008253;28;20581;-71
2023/09/30 09:53:00;;;;;;;10.57;4.00;;;22.60;99.90;;;;;;5009409;28;20616;-71
2023/09/30 09:55:29;;;;;;;10.30;4.10;;;22.90;99.90;;;;;;5008506;28;21175;-70
2023/09/30 09:58:02;;;;;;;12.97;4.20;;;23.10;99.90;;;;;;5008315;28;21027;-70
2023/09/30 10:00:31;;;;;;;11.53;3.80;;;23.50;99.90;;;;;;5008764;28;20829;-68
2023/09/30 10:03:00;;;;;;;11.83;4.60;;;23.80;99.90;;;;;;5008502;28;20454;-70
2023/09/30 10:05:28;;;;;;;14.10;3.83;;;24.20;99.90;;;;;;5008399;28;20470;-70
2023/09/30 10:08:02;;;;;;;10.23;3.90;;;24.50;99.90;;;;;;5008145;28;20454;-71
2023/09/30 10:10:37;;;;;;;12.73;4.20;;;24.60;99.90;;;;;;5007500;28;20989;-70
2023/09/30 10:13:05;;;;;;;10.80;4.10;;;25.00;99.90;;;;;;5008954;28;21042;-70
2023/09/30 10:15:39;;;;;;;12.63;3.83;;;25.20;98.60;;;;;;5008175;28;20810;-70
2023/09/30 10:18:10;;;;;;;13.73;3.90;;;25.10;98.30;;;;;;5008398;28;20463;-70
2023/09/30 10:20:47;;;;;;;11.37;3.90;;;24.80;96.70;;;;;;5008118;28;20469;-70
2023/09/30 10:23:25;;;;;;;10.43;3.23;;;24.80;97.50;;;;;;5008062;28;20493;-70
2023/09/30 10:26:15;;;;;;;10.73;4.17;;;25.30;96.60;;;;;;5006130;28;20471;-70
2023/09/30 10:28:46;;;;;;;10.97;3.93;;;25.80;95.60;;;;;;5007624;28;20516;-70
2023/09/30 10:31:17;;;;;;;11.30;4.60;;;26.20;95.80;;;;;;5008197;28;20537;-70
2023/09/30 10:34:31;;;;;;;12.90;4.73;;;26.40;92.30;;;;;;5007861;28;20478;-70
2023/09/30 10:37:19;;;;;;;11.70;4.57;;;26.50;92.60;;;;;;5007212;28;21133;-70
2023/09/30 10:39:54;;;;;;;11.30;4.53;;;26.00;91.90;;;;;;5007582;28;20464;-69
2023/09/30 10:42:51;;;;;;;12.33;5.00;;;26.40;91.80;;;;;;5008062;28;20449;-71
2023/09/30 10:45:52;;;;;;;9.77;3.83;;;26.40;90.00;;;;;;5007360;28;20495;-70
2023/09/30 10:48:37;;;;;;;8.83;3.63;;;26.70;90.00;;;;;;4946608;28;20448;-71
2023/09/30 10:51:14;;;;;;;13.77;5.13;;;26.60;90.70;;;;;;4947003;28;20488;-71
2023/09/30 10:53:46;;;;;;;11.67;5.23;;;25.80;88.00;;;;;;4985783;28;20513;-71
2023/09/30 10:56:15;;;;;;;10.70;4.93;;;24.30;91.70;;;;;;5007640;28;20462;-70
2023/09/30 10:58:45;;;;;;;11.33;4.27;;;23.70;93.30;;;;;;5007870;28;20453;-70
2023/09/30 11:01:14;;;;;;;11.13;4.43;;;23.10;92.80;;;;;;5007641;28;20477;-70
2023/09/30 11:03:43;;;;;;;11.40;4.80;;;22.50;94.10;;;;;;5007981;28;20461;-70
2023/09/30 11:06:17;;;;;;;11.30;4.13;;;21.90;95.70;;;;;;5007923;28;20469;-70
2023/09/30 11:08:47;;;;;;;13.90;4.20;;;21.50;97.60;;;;;;5005917;28;20937;-71
2023/09/30 11:11:15;;;;;;;11.53;4.27;;;21.50;98.10;;;;;;5007470;28;20561;-71
2023/09/30 11:13:45;;;;;;;10.73;4.70;;;22.00;98.40;;;;;;5007840;28;20477;-71
2023/09/30 11:16:13;;;;;;;13.00;4.70;;;23.30;96.50;;;;;;5005288;28;20512;-71
2023/09/30 11:18:41;;;;;;;12.27;4.40;;;24.50;93.10;;;;;;5007163;28;20457;-71
2023/09/30 11:21:12;;;;;;;11.20;4.40;;;25.50;91.40;;;;;;5007832;28;20960;-71
2023/09/30 11:23:42;;;;;;;12.37;4.73;;;26.20;87.20;;;;;;5006418;28;20993;-70
2023/09/30 11:26:10;;;;;;;12.73;4.90;;;26.90;87.00;;;;;;5007859;28;20485;-71
2023/09/30 11:28:40;;;;;;;12.70;4.60;;;27.80;77.90;;;;;;5006876;28;20459;-70
2023/09/30 11:31:11;;;;;;;11.70;4.63;;;28.00;73.90;;;;;;5001814;28;20497;-70
2023/09/30 11:33:53;;;;;;;10.67;4.23;;;27.30;72.80;;;;;;5006773;28;20485;-70
2023/09/30 11:36:22;;;;;;;11.17;4.60;;;26.90;74.10;;;;;;5006496;28;20465;-70
2023/09/30 11:38:52;;;;;;;11.27;4.10;;;26.70;73.00;;;;;;5007500;28;20894;-68
2023/09/30 11:41:22;;;;;;;10.47;4.43;;;26.60;75.50;;;;;;5007928;28;20478;-70
2023/09/30 11:44:04;;;;;;;12.33;5.50;;;26.30;73.60;;;;;;5006737;28;20497;-68
2023/09/30 11:46:50;;;;;;;12.23;4.57;;;26.00;74.30;;;;;;5007533;28;20456;-69
2023/09/30 11:49:29;;;;;;;13.00;4.37;;;25.80;74.30;;;;;;5006521;28;20457;-70
2023/09/30 11:51:58;;;;;;;10.93;4.17;;;24.60;78.90;;;;;;5007427;28;20492;-70
2023/09/30 11:54:31;;;;;;;11.60;4.23;;;23.40;83.00;;;;;;5007283;28;20489;-70
2023/09/30 11:57:01;;;;;;;11.33;3.87;;;22.60;86.00;;;;;;5006234;28;20488;-71
2023/09/30 11:59:29;;;;;;;11.70;4.60;;;22.50;86.70;;;;;;5011203;28;20891;-69
2023/09/30 12:01:59;;;;;;;15.60;4.97;;;23.00;83.40;;;;;;5010649;28;20489;-70
2023/09/30 12:04:41;;;;;;;10.53;4.20;;;24.10;80.70;;;;;;5008686;28;20877;-69
2023/09/30 12:07:10;;;;;;;12.37;4.87;;;25.80;78.30;;;;;;5010115;28;20454;-70
2023/09/30 12:09:39;;;;;;;12.10;4.70;;;26.40;69.10;;;;;;5010423;28;20449;-69
2023/09/30 12:12:09;;;;;;;12.03;4.00;;;27.20;73.10;;;;;;5010527;28;20858;-70
2023/09/30 12:14:38;;;;;;;13.80;5.00;;;28.10;68.70;;;;;;5010430;28;20473;-70
2023/09/30 12:17:10;;;;;;;12.50;4.43;;;28.90;61.40;;;;;;5008286;28;20482;-69
2023/09/30 12:19:40;;;;;;;12.10;4.77;;;29.20;61.90;;;;;;5010807;28;20544;-69
2023/09/30 12:22:10;;;;;;;12.80;4.60;;;28.60;57.40;;;;;;5010647;28;20500;-71
2023/09/30 12:24:39;;;;;;;10.80;4.07;;;28.10;58.80;;;;;;5009870;28;21045;-70
2023/09/30 12:27:07;;;;;;;12.50;5.10;;;28.20;58.00;;;;;;5011042;28;20464;-69
2023/09/30 12:29:38;;;;;;;11.63;4.50;;;28.70;56.70;;;;;;5009750;28;20462;-70
2023/09/30 12:32:08;;;;;;;11.40;4.80;;;28.70;58.30;;;;;;5010095;28;20920;-69
2023/09/30 12:34:36;;;;;;;15.43;4.63;;;28.30;56.60;;;;;;5010044;28;20490;-69
2023/09/30 12:37:04;;;;;;;12.10;4.67;;;28.00;58.70;;;;;;5002859;28;20874;-69
2023/09/30 12:39:33;;;;;;;11.20;4.80;;;28.00;58.20;;;;;;5010179;28;20458;-70
2023/09/30 12:42:08;;;;;;;13.97;5.47;;;28.30;57.10;;;;;;5010136;28;20501;-69
2023/09/30 12:44:37;;;;;;;11.87;5.00;;;26.80;58.00;;;;;;5009156;28;20453;-69
2023/09/30 12:47:06;;;;;;;14.57;5.20;;;25.50;60.00;;;;;;5009630;28;20454;-68
2023/09/30 12:49:34;;;;;;;13.80;5.17;;;24.50;63.50;;;;;;5010054;28;20532;-69
2023/09/30 12:52:03;;;;;;;11.33;4.97;;;23.90;65.40;;;;;;5010421;28;20469;-69